Etusivu
METAR-TAF:

METAR-TAF

Lentoasemat :

Ateenan kansainvälinen lentoasema

Ateena, Kreikka

Leveyspiiri: 37-56N, Pituuspiiri: 023-56E, korkeus merenpinnasta: 94 m

Tämänhetkinen sää

Tämä raportti tehtiin 39 minuuttia sitten, kello 10.50 UTC
Tuuli 21 kn pohjoisesta/koillisesta
Lämpötila 14°C
Kosteus 38%
Ilmanpaine 1020 hPa
Näkyvyys 10 km tai enemmän
Muutamia pilviä 4000 ft:n korkeudessa

METAR: LGAV 241050Z 02021KT 9999 FEW040 14/00 Q1020 NOSIG

Aika: 13:29 (11:29 UTC)

Sääennuste

Tämä raportti tehtiin 6 tuntia ja 29 minuuttia sitten, kello 05.00 UTC
Ennuste voimassa 24. päivästä klo 06 UTC - 25. päivään klo 06 UTC
Tuuli 20 kn pohjoisesta/koillisesta
Näkyvyys 10 km tai enemmän
Muutamia pilviä 2000 ft:n korkeudessa
Hajanaisia pilviä 4000 ft:n korkeudessa
Ajoittain
24. päivästä klo 06 UTC - 24. päivään klo 18 UTC
Tuuli 20 kn pohjoisesta/koillisesta puuskistuen 35 kn:hen

TAF: LGAV 240500Z 2406/2506 03020KT 9999 FEW020 SCT040 TEMPO 2406/2418 03020G35KT

Säähavainnot ja -ennusteet yli 4000 lentoasemalta (METAR- ja TAF-raportit).

Käytössä olevat sääasemat on merkitty karttaan keltaisilla ja punaisilla pisteillä.

Aseta hiiri pisteen päälle nähdäksesi sääaseman nimen.

Klikkaa sitten nähdäksesi säähavainnot ja -ennusteet.

Kartan vaihtaminen: klikkaa mustalla rastilla varustettuja vihreitä pisteitä, niin voit zoomata sisään; viivalla varustettua vihreää pistettä, niin voit zoomata ulos tai vihreitä nuolia, niin pääset viereisille kartoille.


METAR-TAF: